createdAt,value
2023-03-05T00:00:18.186Z,64.62
2023-03-05T00:01:18.140Z,64.71
2023-03-05T00:02:18.173Z,64.75
2023-03-05T00:03:19.142Z,64.71
2023-03-05T00:04:18.098Z,64.73
2023-03-05T00:05:18.106Z,64.75
2023-03-05T00:06:18.140Z,64.80
2023-03-05T00:07:18.058Z,64.81
2023-03-05T00:08:19.071Z,64.84
2023-03-05T00:09:18.061Z,64.87
2023-03-05T00:10:18.051Z,64.88
2023-03-05T00:11:18.033Z,64.94
2023-03-05T00:12:18.039Z,64.98
2023-03-05T00:13:17.981Z,64.99
2023-03-05T00:14:18.891Z,64.97
2023-03-05T00:15:17.962Z,64.96
2023-03-05T00:16:18.061Z,64.97
2023-03-05T00:17:17.937Z,64.99
2023-03-05T00:18:17.930Z,65.02
2023-03-05T00:19:18.826Z,65.02
2023-03-05T00:20:17.886Z,65.05
2023-03-05T00:21:17.909Z,65.05
2023-03-05T00:22:17.902Z,65.02
2023-03-05T00:23:17.848Z,65.04
2023-03-05T00:24:18.810Z,65.04
2023-03-05T00:25:17.830Z,65.04
2023-03-05T00:26:17.840Z,65.07
2023-03-05T00:27:17.779Z,65.07
2023-03-05T00:28:17.797Z,65.06
2023-03-05T00:29:17.794Z,65.05
2023-03-05T00:30:18.727Z,65.08
2023-03-05T00:31:17.874Z,65.07
2023-03-05T00:32:17.794Z,65.04
2023-03-05T00:33:17.716Z,65.04
2023-03-05T00:34:17.713Z,65.02
2023-03-05T00:35:17.688Z,65.01
2023-03-05T00:36:18.613Z,65.00
2023-03-05T00:37:17.694Z,65.00
2023-03-05T00:38:17.659Z,65.02
2023-03-05T00:39:17.649Z,65.03
2023-03-05T00:40:17.744Z,65.03
2023-03-05T00:41:17.631Z,64.99
2023-03-05T00:42:18.566Z,64.96
2023-03-05T00:43:17.597Z,64.96
2023-03-05T00:44:17.617Z,64.93
2023-03-05T00:45:17.610Z,64.93
2023-03-05T00:46:17.632Z,64.93
2023-03-05T00:47:18.579Z,64.96
2023-03-05T00:48:18.459Z,64.94
2023-03-05T00:49:17.544Z,64.95
2023-03-05T00:50:17.527Z,64.96
2023-03-05T00:51:17.547Z,64.94
2023-03-05T00:52:17.514Z,64.93
2023-03-05T00:53:18.381Z,64.94
2023-03-05T00:54:18.424Z,64.92
2023-03-05T00:55:17.455Z,64.94
2023-03-05T00:56:17.423Z,64.94
2023-03-05T00:57:17.443Z,64.91
2023-03-05T00:58:17.436Z,64.88
2023-03-05T00:59:18.329Z,64.86
2023-03-05T01:00:17.398Z,64.86
2023-03-05T01:01:18.388Z,64.84
2023-03-05T01:02:17.368Z,64.85
2023-03-05T01:03:17.361Z,64.84
2023-03-05T01:04:18.256Z,64.83
2023-03-05T01:05:17.361Z,64.83
2023-03-05T01:06:17.291Z,64.81
2023-03-05T01:07:17.312Z,64.82
2023-03-05T01:08:17.269Z,64.82
2023-03-05T01:09:18.186Z,64.83
2023-03-05T01:10:17.254Z,64.82
2023-03-05T01:11:17.217Z,64.81
2023-03-05T01:12:17.203Z,64.79
2023-03-05T01:13:17.214Z,64.79
2023-03-05T01:14:18.134Z,64.81
2023-03-05T01:15:17.159Z,64.79
2023-03-05T01:16:17.203Z,64.78
2023-03-05T01:17:17.179Z,64.79
2023-03-05T01:18:17.198Z,64.79
2023-03-05T01:19:17.529Z,64.77
2023-03-05T01:20:18.045Z,64.78
2023-03-05T01:21:17.161Z,64.82
2023-03-05T01:22:17.084Z,64.84
2023-03-05T01:23:17.051Z,64.81
2023-03-05T01:24:17.052Z,64.80
2023-03-05T01:25:17.051Z,64.81
2023-03-05T01:26:17.982Z,64.80
2023-03-05T01:27:17.023Z,64.78
2023-03-05T01:28:17.010Z,64.77
2023-03-05T01:29:17.020Z,64.77
2023-03-05T01:30:16.977Z,64.77
2023-03-05T01:31:17.954Z,64.74
2023-03-05T01:32:17.007Z,64.68
2023-03-05T01:33:16.927Z,64.68
2023-03-05T01:34:16.961Z,64.66
2023-03-05T01:35:16.944Z,64.62
2023-03-05T01:37:15.282Z,64.37
2023-03-05T01:38:15.362Z,64.50
2023-03-05T01:39:15.272Z,64.64
2023-03-05T01:40:15.313Z,64.73
2023-03-05T01:41:15.258Z,64.71
2023-03-05T01:42:17.131Z,64.69
2023-03-05T01:43:15.195Z,64.68
2023-03-05T01:44:15.166Z,64.62
2023-03-05T01:45:15.151Z,64.55
2023-03-05T01:46:15.188Z,64.51
2023-03-05T01:47:15.148Z,64.49
2023-03-05T01:48:16.111Z,64.51
2023-03-05T01:49:15.275Z,64.47
2023-03-05T01:50:15.146Z,64.44
2023-03-05T01:51:15.095Z,64.41
2023-03-05T01:52:15.081Z,64.38
2023-03-05T01:53:15.984Z,64.38
2023-03-05T01:54:15.122Z,64.39
2023-03-05T01:55:15.180Z,64.35
2023-03-05T01:56:15.069Z,64.36
2023-03-05T01:57:15.113Z,64.39
2023-03-05T01:58:16.871Z,64.37
2023-03-05T01:59:15.064Z,64.35
2023-03-05T02:00:14.990Z,64.32
2023-03-05T02:01:15.046Z,64.28
2023-03-05T02:02:14.958Z,64.25
2023-03-05T02:03:15.053Z,64.27
2023-03-05T02:04:16.013Z,64.25
2023-03-05T02:05:15.005Z,64.29
2023-03-05T02:06:14.932Z,64.29
2023-03-05T02:07:14.924Z,64.28
2023-03-05T02:08:14.874Z,64.29
2023-03-05T02:09:15.871Z,64.27
2023-03-05T02:10:14.846Z,64.25
2023-03-05T02:11:14.916Z,64.20
2023-03-05T02:12:14.855Z,64.16
2023-03-05T02:13:15.791Z,64.10
2023-03-05T02:14:14.896Z,64.10
2023-03-05T02:15:15.729Z,64.07
2023-03-05T02:16:14.788Z,64.05
2023-03-05T02:17:14.810Z,64.03
2023-03-05T02:18:14.816Z,64.00
2023-03-05T02:19:14.752Z,63.97
2023-03-05T02:20:15.689Z,63.93
2023-03-05T02:21:15.679Z,63.88
2023-03-05T02:22:14.679Z,63.84
2023-03-05T02:23:15.693Z,63.84
2023-03-05T02:24:14.673Z,63.87
2023-03-05T02:25:14.672Z,63.90
2023-03-05T02:26:15.580Z,63.89
2023-03-05T02:27:14.642Z,63.90
2023-03-05T02:28:14.599Z,63.91
2023-03-05T02:29:14.680Z,63.89
2023-03-05T02:30:14.645Z,63.89
2023-03-05T02:31:15.589Z,63.85
2023-03-05T02:32:14.695Z,63.82
2023-03-05T02:33:14.622Z,63.74
2023-03-05T02:34:14.678Z,63.69
2023-03-05T02:35:14.565Z,63.67
2023-03-05T02:36:14.565Z,63.66
2023-03-05T02:37:15.609Z,63.67
2023-03-05T02:38:14.538Z,63.68
2023-03-05T02:39:14.600Z,63.64
2023-03-05T02:40:14.478Z,63.62
2023-03-05T02:41:14.486Z,63.61
2023-03-05T02:42:15.402Z,63.61
2023-03-05T02:43:14.480Z,63.65
2023-03-05T02:44:14.395Z,63.67
2023-03-05T02:45:14.444Z,63.68
2023-03-05T02:46:14.430Z,63.68
2023-03-05T02:47:15.394Z,63.66
2023-03-05T02:48:14.516Z,63.66
2023-03-05T02:49:14.369Z,63.66
2023-03-05T02:50:14.400Z,63.69
2023-03-05T02:51:14.314Z,63.71
2023-03-05T02:52:15.260Z,63.73
2023-03-05T02:53:14.419Z,63.75
2023-03-05T02:54:14.299Z,63.76
2023-03-05T02:55:14.574Z,63.73
2023-03-05T02:56:14.266Z,63.68
2023-03-05T02:57:15.298Z,63.64
2023-03-05T02:58:14.286Z,63.60
2023-03-05T02:59:14.251Z,63.58
2023-03-05T03:00:14.351Z,63.61
2023-03-05T03:01:14.239Z,63.63
2023-03-05T03:02:14.205Z,63.66
2023-03-05T03:03:15.206Z,63.67
2023-03-05T03:04:14.209Z,63.67
2023-03-05T03:05:14.177Z,63.63
2023-03-05T03:06:14.230Z,63.61
2023-03-05T03:07:14.121Z,63.59
2023-03-05T03:08:14.141Z,63.59
2023-03-05T03:09:15.097Z,63.57
2023-03-05T03:10:14.100Z,63.57
2023-03-05T03:11:15.027Z,63.57
2023-03-05T03:12:14.081Z,63.54
2023-03-05T03:13:14.105Z,63.53
2023-03-05T03:14:14.079Z,63.55
2023-03-05T03:15:14.998Z,63.53
2023-03-05T03:16:15.034Z,63.52
2023-03-05T03:17:14.002Z,63.50
2023-03-05T03:18:14.017Z,63.49
2023-03-05T03:19:13.979Z,63.49
2023-03-05T03:20:14.978Z,63.46
2023-03-05T03:21:13.937Z,63.45
2023-03-05T03:22:13.976Z,63.47
2023-03-05T03:23:15.036Z,63.48
2023-03-05T03:24:13.946Z,63.47
2023-03-05T03:25:13.953Z,63.46
2023-03-05T03:26:14.875Z,63.48
2023-03-05T03:27:13.948Z,63.46
2023-03-05T03:28:13.898Z,63.47
2023-03-05T03:29:13.954Z,63.45
2023-03-05T03:30:13.892Z,63.45
2023-03-05T03:31:14.911Z,63.49
2023-03-05T03:32:13.817Z,63.52
2023-03-05T03:33:13.877Z,63.56
2023-03-05T03:34:13.774Z,63.56
2023-03-05T03:35:13.781Z,63.54
2023-03-05T03:36:13.752Z,63.52
2023-03-05T03:37:14.775Z,63.48
2023-03-05T03:38:13.739Z,63.48
2023-03-05T03:39:13.743Z,63.49
2023-03-05T03:40:13.724Z,63.51
2023-03-05T03:41:13.718Z,63.50
2023-03-05T03:42:14.658Z,63.51
2023-03-05T03:43:14.619Z,63.51
2023-03-05T03:44:13.672Z,63.51
2023-03-05T03:45:13.681Z,63.48
2023-03-05T03:46:13.696Z,63.51
2023-03-05T03:47:14.609Z,63.52
2023-03-05T03:48:13.658Z,63.52
2023-03-05T03:49:13.586Z,63.54
2023-03-05T03:50:14.245Z,63.56
2023-03-05T03:51:13.632Z,63.58
2023-03-05T03:52:14.643Z,63.57
2023-03-05T03:53:13.545Z,63.57
2023-03-05T03:54:13.542Z,63.59
2023-03-05T03:55:13.544Z,63.59
2023-03-05T03:56:14.497Z,63.57
2023-03-05T03:57:13.521Z,63.53
2023-03-05T03:58:14.481Z,63.55
2023-03-05T03:59:13.536Z,63.56
2023-03-05T04:00:13.490Z,63.56
2023-03-05T04:01:13.490Z,63.55
2023-03-05T04:02:13.515Z,63.54
2023-03-05T04:03:15.334Z,63.54
2023-03-05T04:04:13.440Z,63.53
2023-03-05T04:05:13.467Z,63.56
2023-03-05T04:06:14.422Z,63.55
2023-03-05T04:07:13.463Z,63.56
2023-03-05T04:08:13.399Z,63.52
2023-03-05T04:09:14.289Z,63.53
2023-03-05T04:10:13.347Z,63.56
2023-03-05T04:11:13.400Z,63.59
2023-03-05T04:12:13.337Z,63.60
2023-03-05T04:13:13.326Z,63.62
2023-03-05T04:14:15.251Z,63.61
2023-03-05T04:15:13.293Z,63.61
2023-03-05T04:16:13.314Z,63.58
2023-03-05T04:17:13.240Z,63.58
2023-03-05T04:18:13.352Z,63.59
2023-03-05T04:19:14.172Z,63.62
2023-03-05T04:20:13.368Z,63.66
2023-03-05T04:21:13.357Z,63.68
2023-03-05T04:22:13.456Z,63.66
2023-03-05T04:23:13.237Z,63.67
2023-03-05T04:24:14.174Z,63.69
2023-03-05T04:25:14.069Z,63.69
2023-03-05T04:26:14.098Z,63.71
2023-03-05T04:27:13.140Z,63.76
2023-03-05T04:28:13.245Z,63.79
2023-03-05T04:29:13.190Z,63.82
2023-03-05T04:30:14.051Z,63.83
2023-03-05T04:31:13.132Z,63.84
2023-03-05T04:32:13.236Z,63.85
2023-03-05T04:33:13.085Z,63.88
2023-03-05T04:34:13.075Z,63.86
2023-03-05T04:35:12.999Z,63.83
2023-03-05T04:36:13.962Z,63.81
2023-03-05T04:37:13.084Z,63.78
2023-03-05T04:38:13.038Z,63.79
2023-03-05T04:39:12.971Z,63.80
2023-03-05T04:40:12.960Z,63.77
2023-03-05T04:41:12.980Z,63.76
2023-03-05T04:42:13.880Z,63.74
2023-03-05T04:43:12.905Z,63.75
2023-03-05T04:44:12.906Z,63.74
2023-03-05T04:45:12.880Z,63.76
2023-03-05T04:46:12.977Z,63.76
2023-03-05T04:47:12.888Z,63.75
2023-03-05T04:48:13.774Z,63.78
2023-03-05T04:49:12.912Z,63.78
2023-03-05T04:50:12.860Z,63.78
2023-03-05T04:51:12.948Z,63.78
2023-03-05T04:52:12.823Z,63.75
2023-03-05T04:53:13.730Z,63.72
2023-03-05T04:54:12.903Z,63.73
2023-03-05T04:55:12.802Z,63.71
2023-03-05T04:56:12.773Z,63.72
2023-03-05T04:57:12.764Z,63.73
2023-03-05T04:58:13.654Z,63.72
2023-03-05T04:59:12.707Z,63.69
2023-03-05T05:00:12.693Z,63.66
2023-03-05T05:01:12.719Z,63.65
2023-03-05T05:02:12.697Z,63.61
2023-03-05T05:03:13.723Z,63.62
2023-03-05T05:04:12.685Z,63.61
2023-03-05T05:05:12.676Z,63.65
2023-03-05T05:06:12.648Z,63.67
2023-03-05T05:07:12.639Z,63.67
2023-03-05T05:08:12.660Z,63.68
2023-03-05T05:09:13.579Z,63.69
2023-03-05T05:10:12.553Z,63.72
2023-03-05T05:11:12.569Z,63.72
2023-03-05T05:12:12.565Z,63.72
2023-03-05T05:13:12.708Z,63.71
2023-03-05T05:14:12.633Z,63.71
2023-03-05T05:15:13.445Z,63.70
2023-03-05T05:16:12.559Z,63.70
2023-03-05T05:17:12.578Z,63.71
2023-03-05T05:18:12.495Z,63.72
2023-03-05T05:19:12.585Z,63.70
2023-03-05T05:20:13.442Z,63.69
2023-03-05T05:21:12.461Z,63.67
2023-03-05T05:22:12.417Z,63.68
2023-03-05T05:23:12.465Z,63.69
2023-03-05T05:24:12.369Z,63.67
2023-03-05T05:25:12.399Z,63.65
2023-03-05T05:26:13.460Z,63.64
2023-03-05T05:27:12.472Z,63.64
2023-03-05T05:28:12.429Z,63.63
2023-03-05T05:29:12.403Z,63.62
2023-03-05T05:30:12.328Z,63.60
2023-03-05T05:31:12.333Z,63.60
2023-03-05T05:32:13.282Z,63.61
2023-03-05T05:33:12.321Z,63.64
2023-03-05T05:34:12.281Z,63.65
2023-03-05T05:35:12.233Z,63.66
2023-03-05T05:36:12.371Z,63.65
2023-03-05T05:37:13.285Z,63.64
2023-03-05T05:38:12.231Z,63.58
2023-03-05T05:39:12.198Z,63.54
2023-03-05T05:40:12.242Z,63.53
2023-03-05T05:41:14.894Z,63.55
2023-03-05T05:42:13.095Z,63.54
2023-03-05T05:43:12.249Z,63.51
2023-03-05T05:44:12.198Z,63.49
2023-03-05T05:45:12.272Z,63.47
2023-03-05T05:46:12.283Z,63.47
2023-03-05T05:47:12.116Z,63.48
2023-03-05T05:48:13.025Z,63.44
2023-03-05T05:49:12.096Z,63.43
2023-03-05T05:50:12.061Z,63.43
2023-03-05T05:51:12.137Z,63.44
2023-03-05T05:52:12.238Z,63.41
2023-03-05T05:53:13.111Z,63.39
2023-03-05T05:54:12.019Z,63.37
2023-03-05T05:55:12.045Z,63.34
2023-03-05T05:56:11.985Z,63.35
2023-03-05T05:57:12.060Z,63.31
2023-03-05T05:58:13.007Z,63.30
2023-03-05T05:59:11.983Z,63.26
2023-03-05T06:00:12.184Z,63.24
2023-03-05T06:01:12.001Z,63.22
2023-03-05T06:02:11.950Z,63.23
2023-03-05T06:03:12.943Z,63.23
2023-03-05T06:04:11.897Z,63.26
2023-03-05T06:05:12.113Z,63.27
2023-03-05T06:06:12.645Z,63.22
2023-03-05T06:07:11.950Z,63.17
2023-03-05T06:08:12.068Z,63.13
2023-03-05T06:09:12.820Z,63.13
2023-03-05T06:10:11.887Z,63.11
2023-03-05T06:11:11.797Z,63.10
2023-03-05T06:12:11.800Z,63.10
2023-03-05T06:13:11.769Z,63.08
2023-03-05T06:14:12.698Z,63.07
2023-03-05T06:15:11.761Z,63.03
2023-03-05T06:16:11.798Z,62.98
2023-03-05T06:17:14.820Z,62.92
2023-03-05T06:18:11.751Z,62.86
2023-03-05T06:19:11.708Z,62.80
2023-03-05T06:20:13.301Z,62.75
2023-03-05T06:21:11.847Z,62.71
2023-03-05T06:22:11.834Z,62.68
2023-03-05T06:23:11.651Z,62.63
2023-03-05T06:24:11.669Z,62.57
2023-03-05T06:25:12.585Z,62.53
2023-03-05T06:26:11.609Z,62.48
2023-03-05T06:27:11.669Z,62.42
2023-03-05T06:28:11.569Z,62.39
2023-03-05T06:29:11.576Z,62.34
2023-03-05T06:30:12.512Z,62.29
2023-03-05T06:31:11.606Z,62.27
2023-03-05T06:32:11.596Z,62.27
2023-03-05T06:33:11.580Z,62.26
2023-03-05T06:34:11.507Z,62.20
2023-03-05T06:35:11.505Z,62.16
2023-03-05T06:36:12.384Z,62.12
2023-03-05T06:37:11.672Z,62.11
2023-03-05T06:38:12.366Z,62.03
2023-03-05T06:39:11.539Z,61.95
2023-03-05T06:40:11.442Z,61.84
2023-03-05T06:41:11.466Z,61.78
2023-03-05T06:42:12.324Z,61.68
2023-03-05T06:43:11.462Z,61.57
2023-03-05T06:44:11.449Z,61.47
2023-03-05T06:45:11.352Z,61.44
2023-03-05T06:46:11.427Z,61.39
2023-03-05T06:47:12.314Z,61.36
2023-03-05T06:48:11.436Z,61.36
2023-03-05T06:49:11.341Z,61.35
2023-03-05T06:50:11.304Z,61.41
2023-03-05T06:51:11.327Z,61.49
2023-03-05T06:52:11.284Z,61.58
2023-03-05T06:53:12.199Z,61.63
2023-03-05T06:54:11.303Z,61.61
2023-03-05T06:55:11.262Z,61.63
2023-03-05T06:56:11.243Z,61.65
2023-03-05T06:57:11.235Z,61.69
2023-03-05T06:58:12.172Z,61.69
2023-03-05T06:59:11.180Z,61.73
2023-03-05T07:00:11.236Z,61.76
2023-03-05T07:01:11.230Z,61.78
2023-03-05T07:02:11.247Z,61.80
2023-03-05T07:03:11.194Z,61.82
2023-03-05T07:04:12.127Z,61.80
2023-03-05T07:05:11.125Z,61.74
2023-03-05T07:06:11.104Z,61.65
2023-03-05T07:07:11.135Z,61.50
2023-03-05T07:08:11.077Z,61.29
2023-03-05T07:09:11.078Z,61.06
2023-03-05T07:10:11.981Z,60.84
2023-03-05T07:11:11.066Z,60.68
2023-03-05T07:12:11.248Z,60.55
2023-03-05T07:13:11.012Z,60.49
2023-03-05T07:14:11.014Z,60.42
2023-03-05T07:15:11.920Z,60.45
2023-03-05T07:16:11.026Z,60.50
2023-03-05T07:17:11.097Z,60.58
2023-03-05T07:18:11.087Z,60.65
2023-03-05T07:19:11.009Z,60.70
2023-03-05T07:20:11.027Z,60.68
2023-03-05T07:21:17.698Z,60.71
2023-03-05T07:22:11.802Z,60.74
2023-03-05T07:23:10.870Z,60.73
2023-03-05T07:24:10.892Z,60.70
2023-03-05T07:25:10.913Z,60.71
2023-03-05T07:26:10.942Z,60.77
2023-03-05T07:27:11.809Z,60.88
2023-03-05T07:28:10.815Z,60.95
2023-03-05T07:29:10.808Z,61.05
2023-03-05T07:30:10.815Z,61.18
2023-03-05T07:31:10.839Z,61.28
2023-03-05T07:32:10.920Z,61.31
2023-03-05T07:33:12.012Z,61.20
2023-03-05T07:34:10.755Z,61.03
2023-03-05T07:35:10.757Z,60.91
2023-03-05T07:36:10.746Z,60.80
2023-03-05T07:37:10.711Z,60.72
2023-03-05T07:38:10.743Z,60.69
2023-03-05T07:39:11.654Z,60.63
2023-03-05T07:40:10.651Z,60.52
2023-03-05T07:41:10.650Z,60.47
2023-03-05T07:42:10.706Z,60.43
2023-03-05T07:43:10.654Z,60.40
2023-03-05T07:44:11.586Z,60.35
2023-03-05T07:45:10.652Z,60.32
2023-03-05T07:46:10.658Z,60.32
2023-03-05T07:47:10.643Z,60.28
2023-03-05T07:48:10.571Z,60.23
2023-03-05T07:49:10.578Z,60.21
2023-03-05T07:50:11.503Z,60.26
2023-03-05T07:51:10.530Z,60.37
2023-03-05T07:52:10.726Z,60.52
2023-03-05T07:53:10.508Z,60.64
2023-03-05T07:54:10.623Z,60.70
2023-03-05T07:55:11.382Z,60.68
2023-03-05T07:56:10.634Z,60.58
2023-03-05T07:57:10.450Z,60.54
2023-03-05T07:58:10.454Z,60.54
2023-03-05T07:59:10.505Z,60.60
2023-03-05T08:00:11.351Z,60.71
2023-03-05T08:01:12.533Z,60.84
2023-03-05T08:02:11.186Z,60.91
2023-03-05T08:03:10.718Z,61.02
2023-03-05T08:04:10.837Z,61.08
2023-03-05T08:06:09.299Z,60.72
2023-03-05T08:07:09.279Z,60.68
2023-03-05T08:08:09.300Z,60.44
2023-03-05T08:09:09.275Z,60.45
2023-03-05T08:10:10.214Z,60.28
2023-03-05T08:11:09.267Z,59.98
2023-03-05T08:12:09.217Z,59.69
2023-03-05T08:13:09.263Z,59.53
2023-03-05T08:14:09.186Z,59.28
2023-03-05T08:15:09.204Z,59.22
2023-03-05T08:16:10.171Z,59.15
2023-03-05T08:17:09.189Z,59.07
2023-03-05T08:18:09.165Z,59.01
2023-03-05T08:19:09.140Z,59.00
2023-03-05T08:20:09.127Z,59.02
2023-03-05T08:21:09.113Z,59.08
2023-03-05T08:22:10.075Z,58.91
2023-03-05T08:23:09.131Z,58.46
2023-03-05T08:24:09.075Z,57.82
2023-03-05T08:25:09.056Z,57.22
2023-03-05T08:26:09.108Z,56.86
2023-03-05T08:27:10.018Z,56.79
2023-03-05T08:28:09.032Z,56.98
2023-03-05T08:29:09.038Z,57.02
2023-03-05T08:30:09.014Z,57.26
2023-03-05T08:31:09.037Z,57.36
2023-03-05T08:32:09.940Z,57.28
2023-03-05T08:33:08.969Z,56.65
2023-03-05T08:34:08.951Z,55.97
2023-03-05T08:35:08.956Z,55.38
2023-03-05T08:36:08.915Z,55.10
2023-03-05T08:37:08.935Z,55.13
2023-03-05T08:38:09.828Z,55.13
2023-03-05T08:39:08.876Z,55.07
2023-03-05T08:40:08.931Z,55.02
2023-03-05T08:41:08.863Z,54.99
2023-03-05T08:42:09.131Z,55.01
2023-03-05T08:43:09.792Z,55.19
2023-03-05T08:44:08.838Z,55.60
2023-03-05T08:45:08.794Z,55.99
2023-03-05T08:46:08.916Z,56.33
2023-03-05T08:47:08.790Z,56.54
2023-03-05T08:48:09.746Z,56.61
2023-03-05T08:49:08.749Z,56.70
2023-03-05T08:50:08.779Z,56.85
2023-03-05T08:51:08.770Z,57.17
2023-03-05T08:52:08.710Z,57.26
2023-03-05T08:53:08.777Z,57.48
2023-03-05T08:54:09.603Z,57.67
2023-03-05T08:55:08.699Z,57.88
2023-03-05T08:56:08.703Z,58.01
2023-03-05T08:57:08.654Z,58.15
2023-03-05T08:58:08.674Z,58.11
2023-03-05T08:59:08.618Z,58.07
2023-03-05T09:00:09.553Z,58.03
2023-03-05T09:01:08.644Z,57.61
2023-03-05T09:02:08.631Z,57.26
2023-03-05T09:03:08.633Z,57.31
2023-03-05T09:04:08.560Z,56.57
2023-03-05T09:05:09.490Z,55.52
2023-03-05T09:06:08.543Z,54.88
2023-03-05T09:07:08.549Z,55.05
2023-03-05T09:08:08.637Z,55.34
2023-03-05T09:09:08.493Z,55.84
2023-03-05T09:10:08.580Z,56.36
2023-03-05T09:11:09.491Z,56.71
2023-03-05T09:12:10.589Z,56.92
2023-03-05T09:13:08.465Z,56.93
2023-03-05T09:14:08.463Z,56.92
2023-03-05T09:15:08.417Z,57.14
2023-03-05T09:16:08.410Z,57.32
2023-03-05T09:17:09.355Z,57.53
2023-03-05T09:18:08.392Z,57.73
2023-03-05T09:19:08.486Z,57.87
2023-03-05T09:20:08.373Z,57.97
2023-03-05T09:21:08.369Z,58.10
2023-03-05T09:22:08.320Z,58.29
2023-03-05T09:23:09.256Z,58.21
2023-03-05T09:24:08.292Z,58.22
2023-03-05T09:25:08.329Z,58.42
2023-03-05T09:26:08.255Z,58.64
2023-03-05T09:27:08.256Z,58.83
2023-03-05T09:28:09.212Z,59.00
2023-03-05T09:29:08.300Z,59.18
2023-03-05T09:30:08.301Z,59.22
2023-03-05T09:31:08.209Z,59.23
2023-03-05T09:32:08.316Z,59.28
2023-03-05T09:33:08.285Z,59.29
2023-03-05T09:34:09.101Z,59.18
2023-03-05T09:35:08.173Z,59.13
2023-03-05T09:36:08.147Z,59.22
2023-03-05T09:37:08.249Z,59.23
2023-03-05T09:38:08.167Z,59.02
2023-03-05T09:39:08.115Z,58.82
2023-03-05T09:40:09.037Z,58.60
2023-03-05T09:41:08.111Z,58.36
2023-03-05T09:42:10.230Z,58.19
2023-03-05T09:43:08.087Z,58.08
2023-03-05T09:44:08.049Z,57.93
2023-03-05T09:45:08.957Z,57.79
2023-03-05T09:46:08.116Z,57.80
2023-03-05T09:47:08.008Z,57.78
2023-03-05T09:48:08.012Z,57.69
2023-03-05T09:49:08.001Z,57.51
2023-03-05T09:50:08.887Z,57.45
2023-03-05T09:51:07.936Z,57.17
2023-03-05T09:52:07.950Z,56.90
2023-03-05T09:53:08.781Z,56.90
2023-03-05T09:54:07.956Z,57.06
2023-03-05T09:55:07.918Z,57.26
2023-03-05T09:56:08.939Z,57.38
2023-03-05T09:57:07.943Z,57.45
2023-03-05T09:58:07.853Z,57.64
2023-03-05T09:59:07.857Z,57.83
2023-03-05T10:00:07.855Z,57.97
2023-03-05T10:01:07.860Z,58.06
2023-03-05T10:02:08.804Z,58.13
2023-03-05T10:03:07.838Z,58.16
2023-03-05T10:04:07.836Z,58.41
2023-03-05T10:05:07.793Z,58.62
2023-03-05T10:06:07.851Z,58.74
2023-03-05T10:07:08.969Z,58.64
2023-03-05T10:08:07.743Z,58.44
2023-03-05T10:09:07.742Z,58.23
2023-03-05T10:10:07.722Z,57.80
2023-03-05T10:11:07.693Z,57.50
2023-03-05T10:12:08.625Z,57.33
2023-03-05T10:13:07.672Z,57.21
2023-03-05T10:14:07.664Z,57.25
2023-03-05T10:15:07.654Z,57.29
2023-03-05T10:16:07.835Z,57.57
2023-03-05T10:17:08.552Z,57.93
2023-03-05T10:18:07.647Z,58.31
2023-03-05T10:19:07.655Z,58.69
2023-03-05T10:20:07.583Z,59.02
2023-03-05T10:21:07.567Z,59.38
2023-03-05T10:22:08.523Z,59.72
2023-03-05T10:23:07.681Z,59.97
2023-03-05T10:24:07.522Z,60.15
2023-03-05T10:25:07.545Z,60.31
2023-03-05T10:26:07.540Z,60.45
2023-03-05T10:27:08.512Z,60.58
2023-03-05T10:28:07.485Z,60.72
2023-03-05T10:29:07.495Z,60.80
2023-03-05T10:30:07.513Z,60.84
2023-03-05T10:31:07.536Z,60.84
2023-03-05T10:32:08.551Z,60.74
2023-03-05T10:33:07.416Z,60.51
2023-03-05T10:34:07.409Z,60.18
2023-03-05T10:35:07.438Z,59.96
2023-03-05T10:36:07.393Z,59.71
2023-03-05T10:37:08.346Z,59.36
2023-03-05T10:38:07.358Z,59.03
2023-03-05T10:39:07.334Z,58.80
2023-03-05T10:40:07.332Z,58.37
2023-03-05T10:41:07.318Z,58.04
2023-03-05T10:42:07.363Z,57.82
2023-03-05T10:43:08.264Z,57.70
2023-03-05T10:44:07.297Z,57.76
2023-03-05T10:45:07.264Z,57.92
2023-03-05T10:46:07.315Z,58.12
2023-03-05T10:47:07.276Z,58.47
2023-03-05T10:48:07.228Z,58.89
2023-03-05T10:49:08.129Z,59.31
2023-03-05T10:50:07.214Z,59.55
2023-03-05T10:51:07.189Z,59.69
2023-03-05T10:52:07.196Z,59.83
2023-03-05T10:53:07.171Z,59.98
2023-03-05T10:54:07.243Z,60.08
2023-03-05T10:55:08.078Z,60.15
2023-03-05T10:56:07.126Z,60.23
2023-03-05T10:57:07.122Z,60.25
2023-03-05T10:58:07.093Z,60.33
2023-03-05T10:59:07.094Z,60.50
2023-03-05T11:00:08.078Z,60.67
2023-03-05T11:01:07.146Z,60.69
2023-03-05T11:02:07.073Z,60.58
2023-03-05T11:03:07.045Z,60.59
2023-03-05T11:04:07.130Z,60.75
2023-03-05T11:05:07.919Z,60.94
2023-03-05T11:06:07.041Z,61.10
2023-03-05T11:07:07.049Z,61.12
2023-03-05T11:08:07.000Z,61.10
2023-03-05T11:09:06.954Z,61.08
2023-03-05T11:10:06.961Z,61.10
2023-03-05T11:11:07.860Z,60.99
2023-03-05T11:12:06.903Z,60.78
2023-03-05T11:13:06.946Z,60.53
2023-03-05T11:14:06.881Z,60.02
2023-03-05T11:15:06.859Z,59.49
2023-03-05T11:16:07.862Z,59.23
2023-03-05T11:17:06.852Z,59.03
2023-03-05T11:18:06.829Z,58.95
2023-03-05T11:19:06.822Z,59.05
2023-03-05T11:20:06.782Z,59.27
2023-03-05T11:21:07.737Z,59.50
2023-03-05T11:22:06.804Z,59.69
2023-03-05T11:23:06.760Z,59.87
2023-03-05T11:24:06.794Z,60.05
2023-03-05T11:25:06.732Z,60.25
2023-03-05T11:26:06.753Z,60.37
2023-03-05T11:27:07.642Z,60.50
2023-03-05T11:28:06.726Z,60.60
2023-03-05T11:29:06.702Z,60.67
2023-03-05T11:30:06.734Z,60.78
2023-03-05T11:31:06.772Z,60.85
2023-03-05T11:32:06.660Z,60.90
2023-03-05T11:33:09.431Z,60.94
2023-03-05T11:34:06.657Z,60.97
2023-03-05T11:35:06.619Z,60.87
2023-03-05T11:36:06.610Z,60.57
2023-03-05T11:37:06.598Z,60.03
2023-03-05T11:38:06.571Z,59.07
2023-03-05T11:39:07.495Z,57.58
2023-03-05T11:40:06.573Z,56.75
2023-03-05T11:41:06.555Z,56.17
2023-03-05T11:42:06.561Z,56.39
2023-03-05T11:43:06.494Z,56.86
2023-03-05T11:44:06.483Z,57.27
2023-03-05T11:45:07.397Z,57.61
2023-03-05T11:46:06.603Z,57.94
2023-03-05T11:47:06.472Z,58.25
2023-03-05T11:48:06.453Z,58.55
2023-03-05T11:49:06.449Z,58.82
2023-03-05T11:50:06.435Z,59.06
2023-03-05T11:51:07.358Z,59.26
2023-03-05T11:52:06.403Z,59.40
2023-03-05T11:53:06.361Z,59.60
2023-03-05T11:54:06.417Z,59.78
2023-03-05T11:55:06.379Z,59.98
2023-03-05T11:56:07.280Z,60.17
2023-03-05T11:57:06.331Z,60.28
2023-03-05T11:58:06.318Z,60.33
2023-03-05T11:59:06.299Z,60.38
2023-03-05T12:00:06.287Z,60.43
2023-03-05T12:01:07.242Z,60.50
2023-03-05T12:02:06.284Z,60.72
2023-03-05T12:03:06.317Z,60.87
2023-03-05T12:04:06.284Z,60.87
2023-03-05T12:05:06.215Z,60.64
2023-03-05T12:06:07.140Z,60.35
2023-03-05T12:07:06.201Z,60.16
2023-03-05T12:08:06.192Z,59.91
2023-03-05T12:09:06.154Z,59.57
2023-03-05T12:10:06.194Z,59.21
2023-03-05T12:11:06.155Z,58.84
2023-03-05T12:12:07.054Z,58.13
2023-03-05T12:13:06.179Z,57.38
2023-03-05T12:14:06.120Z,55.76
2023-03-05T12:15:06.129Z,53.97
2023-03-05T12:16:06.197Z,52.70
2023-03-05T12:17:06.063Z,52.72
2023-03-05T12:18:06.981Z,52.88
2023-03-05T12:19:06.041Z,53.49
2023-03-05T12:20:06.083Z,54.15
2023-03-05T12:21:06.152Z,54.66
2023-03-05T12:22:06.015Z,55.03
2023-03-05T12:23:06.935Z,55.13
2023-03-05T12:24:05.973Z,54.83
2023-03-05T12:25:05.945Z,53.81
2023-03-05T12:26:05.962Z,53.30
2023-03-05T12:27:05.996Z,52.81
2023-03-05T12:28:06.844Z,52.42
2023-03-05T12:29:05.941Z,51.46
2023-03-05T12:30:05.900Z,51.09
2023-03-05T12:31:05.929Z,50.97
2023-03-05T12:32:06.020Z,50.91
2023-03-05T12:33:06.774Z,50.82
2023-03-05T12:34:05.832Z,50.72
2023-03-05T12:35:05.811Z,50.39
2023-03-05T12:36:05.889Z,50.07
2023-03-05T12:37:05.828Z,49.72
2023-03-05T12:38:24.288Z,49.98
2023-03-05T12:39:08.217Z,50.74
2023-03-05T12:40:05.773Z,51.58
2023-03-05T12:41:05.807Z,52.39
2023-03-05T12:42:05.750Z,53.19
2023-03-05T12:43:05.723Z,53.90
2023-03-05T12:44:06.750Z,54.49
2023-03-05T12:45:05.762Z,55.04
2023-03-05T12:46:05.716Z,55.61
2023-03-05T12:47:05.677Z,56.24
2023-03-05T12:48:05.665Z,56.87
2023-03-05T12:49:06.638Z,57.46
2023-03-05T12:50:05.706Z,57.91
2023-03-05T12:51:05.650Z,58.31
2023-03-05T12:52:05.627Z,58.68
2023-03-05T12:53:05.614Z,58.96
2023-03-05T12:54:05.576Z,59.12